createdAt,value
2018-02-11T00:00:32.274Z,5.85
2018-02-11T00:01:12.811Z,5.96
2018-02-11T00:01:53.393Z,5.91
2018-02-11T00:02:33.955Z,5.75
2018-02-11T00:03:15.416Z,5.75
2018-02-11T00:03:55.944Z,5.79
2018-02-11T00:04:36.485Z,5.71
2018-02-11T00:05:17.106Z,5.74
2018-02-11T00:05:57.615Z,5.57
2018-02-11T00:06:38.199Z,5.6
2018-02-11T00:07:18.750Z,5.57
2018-02-11T00:07:59.258Z,5.67
2018-02-11T00:08:39.836Z,5.76
2018-02-11T00:09:20.341Z,5.72
2018-02-11T00:10:00.907Z,5.86
2018-02-11T00:10:41.454Z,5.97
2018-02-11T00:11:21.971Z,6.06
2018-02-11T00:12:02.561Z,6.08
2018-02-11T00:12:43.069Z,5.93
2018-02-11T00:13:23.618Z,5.83
2018-02-11T00:14:04.147Z,5.82
2018-02-11T00:14:44.681Z,5.85
2018-02-11T00:15:25.209Z,5.78
2018-02-11T00:16:05.756Z,5.64
2018-02-11T00:16:46.349Z,5.75
2018-02-11T00:17:26.838Z,5.76
2018-02-11T00:18:07.393Z,5.81
2018-02-11T00:18:48.002Z,5.74
2018-02-11T00:19:28.527Z,5.72
2018-02-11T00:20:09.113Z,5.83
2018-02-11T00:20:49.607Z,5.68
2018-02-11T00:21:30.157Z,5.82
2018-02-11T00:22:10.760Z,5.67
2018-02-11T00:22:51.255Z,5.63
2018-02-11T00:23:31.856Z,5.53
2018-02-11T00:24:12.359Z,5.61
2018-02-11T00:24:52.881Z,5.53
2018-02-11T00:25:33.429Z,5.53
2018-02-11T00:26:13.936Z,5.64
2018-02-11T00:26:54.432Z,5.6
2018-02-11T00:27:34.980Z,5.63
2018-02-11T00:28:15.520Z,5.64
2018-02-11T00:28:56.232Z,5.65
2018-02-11T00:29:36.601Z,5.71
2018-02-11T00:30:17.161Z,5.68
2018-02-11T00:30:57.693Z,5.6
2018-02-11T00:31:38.296Z,5.72
2018-02-11T00:32:18.890Z,5.72
2018-02-11T00:32:59.460Z,5.6
2018-02-11T00:33:39.974Z,5.51
2018-02-11T00:34:20.541Z,5.54
2018-02-11T00:35:01.045Z,5.51
2018-02-11T00:35:41.821Z,5.63
2018-02-11T00:36:22.352Z,5.56
2018-02-11T00:37:02.893Z,5.57
2018-02-11T00:37:43.470Z,5.53
2018-02-11T00:38:23.972Z,5.61
2018-02-11T00:39:04.620Z,5.76
2018-02-11T00:39:45.139Z,5.58
2018-02-11T00:40:25.703Z,5.63
2018-02-11T00:41:06.177Z,5.75
2018-02-11T00:41:46.735Z,5.72
2018-02-11T00:42:27.302Z,5.75
2018-02-11T00:43:07.855Z,5.72
2018-02-11T00:43:48.390Z,5.72
2018-02-11T00:44:28.923Z,5.6
2018-02-11T00:45:09.421Z,5.56
2018-02-11T00:45:49.942Z,5.49
2018-02-11T00:46:30.507Z,5.48
2018-02-11T00:47:11.055Z,5.6
2018-02-11T00:47:51.615Z,5.68
2018-02-11T00:48:32.230Z,5.74
2018-02-11T00:49:12.746Z,5.67
2018-02-11T00:49:53.260Z,5.75
2018-02-11T00:50:33.827Z,5.91
2018-02-11T00:51:14.580Z,5.79
2018-02-11T00:51:54.991Z,5.89
2018-02-11T00:52:35.624Z,5.83
2018-02-11T00:53:16.208Z,5.97
2018-02-11T00:53:56.765Z,6.03
2018-02-11T00:54:37.286Z,6.17
2018-02-11T00:55:17.870Z,6.04
2018-02-11T00:55:58.422Z,6.12
2018-02-11T00:56:39.024Z,6.18
2018-02-11T00:57:19.478Z,6.14
2018-02-11T00:58:00.162Z,6.08
2018-02-11T00:58:40.718Z,6
2018-02-11T00:59:21.194Z,5.91
2018-02-11T01:00:01.840Z,5.71
2018-02-11T01:00:42.423Z,5.71
2018-02-11T01:01:22.991Z,5.81
2018-02-11T01:02:03.468Z,5.72
2018-02-11T01:02:43.988Z,5.68
2018-02-11T01:03:24.513Z,5.71
2018-02-11T01:04:05.095Z,5.64
2018-02-11T01:04:45.679Z,5.67
2018-02-11T01:05:26.179Z,5.78
2018-02-11T01:06:06.722Z,5.81
2018-02-11T01:06:47.296Z,5.64
2018-02-11T01:07:27.813Z,5.71
2018-02-11T01:08:08.367Z,5.63
2018-02-11T01:08:49.028Z,5.64
2018-02-11T01:09:29.572Z,5.72
2018-02-11T01:10:10.017Z,5.65
2018-02-11T01:10:50.587Z,5.74
2018-02-11T01:11:31.166Z,5.83
2018-02-11T01:12:11.813Z,5.83
2018-02-11T01:12:52.225Z,5.83
2018-02-11T01:13:32.858Z,5.79
2018-02-11T01:14:13.371Z,5.68
2018-02-11T01:14:53.911Z,5.68
2018-02-11T01:15:34.398Z,5.61
2018-02-11T01:16:14.896Z,5.6
2018-02-11T01:16:55.598Z,5.43
2018-02-11T01:17:36.157Z,5.53
2018-02-11T01:18:16.747Z,5.54
2018-02-11T01:18:57.289Z,5.43
2018-02-11T01:19:37.884Z,5.45
2018-02-11T01:20:18.612Z,5.46
2018-02-11T01:20:59.148Z,5.56
2018-02-11T01:21:39.653Z,5.61
2018-02-11T01:22:20.214Z,5.61
2018-02-11T01:23:00.727Z,5.46
2018-02-11T01:23:41.323Z,5.48
2018-02-11T01:24:21.858Z,5.46
2018-02-11T01:25:02.547Z,5.61
2018-02-11T01:25:43.036Z,5.54
2018-02-11T01:26:23.561Z,5.46
2018-02-11T01:27:04.172Z,5.57
2018-02-11T01:27:44.642Z,5.61
2018-02-11T01:28:25.219Z,5.71
2018-02-11T01:29:05.731Z,5.78
2018-02-11T01:29:46.304Z,5.65
2018-02-11T01:30:26.758Z,5.61
2018-02-11T01:31:07.304Z,5.57
2018-02-11T01:31:47.829Z,5.56
2018-02-11T01:32:28.426Z,5.54
2018-02-11T01:33:08.924Z,5.45
2018-02-11T01:33:49.513Z,5.36
2018-02-11T01:34:30.070Z,5.42
2018-02-11T01:35:10.635Z,5.53
2018-02-11T01:35:51.138Z,5.6
2018-02-11T01:36:31.650Z,5.65
2018-02-11T01:37:12.269Z,5.67
2018-02-11T01:37:52.821Z,5.63
2018-02-11T01:38:33.324Z,5.63
2018-02-11T01:39:13.843Z,5.57
2018-02-11T01:39:54.463Z,5.58
2018-02-11T01:40:35.020Z,5.6
2018-02-11T01:41:15.591Z,5.61
2018-02-11T01:41:56.123Z,5.74
2018-02-11T01:42:36.649Z,5.85
2018-02-11T01:43:17.166Z,5.83
2018-02-11T01:43:57.799Z,5.9
2018-02-11T01:44:38.272Z,5.96
2018-02-11T01:45:18.817Z,6.01
2018-02-11T01:45:59.337Z,6
2018-02-11T01:46:39.840Z,5.93
2018-02-11T01:47:20.392Z,5.91
2018-02-11T01:48:00.937Z,5.83
2018-02-11T01:48:41.458Z,5.78
2018-02-11T01:49:22.021Z,5.63
2018-02-11T01:50:02.554Z,5.86
2018-02-11T01:50:43.154Z,5.75
2018-02-11T01:51:23.725Z,5.72
2018-02-11T01:52:04.264Z,5.74
2018-02-11T01:52:44.786Z,5.6
2018-02-11T01:53:25.306Z,5.64
2018-02-11T01:54:05.854Z,5.63
2018-02-11T01:54:46.378Z,5.56
2018-02-11T01:55:26.904Z,5.63
2018-02-11T01:56:07.471Z,5.72
2018-02-11T01:56:47.999Z,5.56
2018-02-11T01:57:28.594Z,5.58
2018-02-11T01:58:09.123Z,5.51
2018-02-11T01:58:49.625Z,5.45
2018-02-11T01:59:30.371Z,5.46
2018-02-11T02:00:10.904Z,5.56
2018-02-11T02:00:51.463Z,5.54
2018-02-11T02:01:32.029Z,5.61
2018-02-11T02:02:12.560Z,5.74
2018-02-11T02:02:53.084Z,5.67
2018-02-11T02:03:33.592Z,5.49
2018-02-11T02:04:14.150Z,5.6
2018-02-11T02:04:54.677Z,5.64
2018-02-11T02:05:35.223Z,5.67
2018-02-11T02:06:15.768Z,5.64
2018-02-11T02:06:56.304Z,5.76
2018-02-11T02:07:36.856Z,5.65
2018-02-11T02:08:17.379Z,5.64
2018-02-11T02:08:57.938Z,5.67
2018-02-11T02:09:38.453Z,5.71
2018-02-11T02:10:18.989Z,5.74
2018-02-11T02:10:59.523Z,5.68
2018-02-11T02:11:40.077Z,5.68
2018-02-11T02:12:20.594Z,5.54
2018-02-11T02:13:01.084Z,5.54
2018-02-11T02:13:41.626Z,5.64
2018-02-11T02:14:22.151Z,5.72
2018-02-11T02:15:02.699Z,5.67
2018-02-11T02:15:43.218Z,5.83
2018-02-11T02:16:23.751Z,5.93
2018-02-11T02:17:04.318Z,5.82
2018-02-11T02:17:44.869Z,5.65
2018-02-11T02:18:25.419Z,5.6
2018-02-11T02:19:05.958Z,5.6
2018-02-11T02:19:46.485Z,5.58
2018-02-11T02:20:27.076Z,5.58
2018-02-11T02:21:07.611Z,5.61
2018-02-11T02:21:48.156Z,5.74
2018-02-11T02:22:28.683Z,5.71
2018-02-11T02:23:09.210Z,5.65
2018-02-11T02:23:49.763Z,5.48
2018-02-11T02:24:30.278Z,5.39
2018-02-11T02:25:10.795Z,5.43
2018-02-11T02:25:51.319Z,5.57
2018-02-11T02:26:31.844Z,5.64
2018-02-11T02:27:12.408Z,5.89
2018-02-11T02:27:52.941Z,5.74
2018-02-11T02:28:33.471Z,5.75
2018-02-11T02:29:14.037Z,5.72
2018-02-11T02:29:54.575Z,5.57
2018-02-11T02:30:35.150Z,5.58
2018-02-11T02:31:15.659Z,5.67
2018-02-11T02:31:56.190Z,5.6
2018-02-11T02:32:36.716Z,5.56
2018-02-11T02:33:17.302Z,5.45
2018-02-11T02:33:57.784Z,5.61
2018-02-11T02:34:38.336Z,5.72
2018-02-11T02:35:18.869Z,5.61
2018-02-11T02:35:59.426Z,5.61
2018-02-11T02:36:39.977Z,5.67
2018-02-11T02:37:20.518Z,5.81
2018-02-11T02:38:01.021Z,5.94
2018-02-11T02:38:41.576Z,5.9
2018-02-11T02:39:22.186Z,5.82
2018-02-11T02:40:02.681Z,5.86
2018-02-11T02:40:43.219Z,5.91
2018-02-11T02:41:23.756Z,6
2018-02-11T02:42:04.281Z,5.99
2018-02-11T02:42:44.793Z,5.99
2018-02-11T02:43:25.340Z,5.9
2018-02-11T02:44:05.869Z,5.97
2018-02-11T02:44:46.428Z,5.91
2018-02-11T02:45:26.979Z,5.85
2018-02-11T02:46:07.541Z,5.81
2018-02-11T02:46:48.013Z,5.86
2018-02-11T02:47:28.543Z,6.03
2018-02-11T02:48:09.105Z,5.97
2018-02-11T02:48:49.642Z,5.94
2018-02-11T02:49:30.205Z,6.09
2018-02-11T02:50:10.713Z,5.99
2018-02-11T02:50:51.253Z,6.12
2018-02-11T02:51:31.786Z,6.14
2018-02-11T02:52:12.327Z,6.12
2018-02-11T02:52:52.856Z,6.14
2018-02-11T02:53:33.361Z,6.15
2018-02-11T02:54:13.909Z,6.3
2018-02-11T02:54:54.423Z,6.27
2018-02-11T02:55:34.936Z,6.52
2018-02-11T02:56:15.465Z,6.21
2018-02-11T02:56:56.001Z,6.18
2018-02-11T02:57:36.549Z,6.15
2018-02-11T02:58:17.091Z,6.22
2018-02-11T02:58:57.619Z,6.18
2018-02-11T02:59:38.163Z,6.06
2018-02-11T03:00:18.724Z,6.09
2018-02-11T03:00:59.288Z,6.21
2018-02-11T03:01:39.769Z,6.21
2018-02-11T03:02:20.288Z,6.17
2018-02-11T03:03:00.838Z,5.96
2018-02-11T03:03:41.358Z,5.94
2018-02-11T03:04:21.915Z,6.08
2018-02-11T03:05:02.431Z,6.01
2018-02-11T03:05:43.007Z,5.99
2018-02-11T03:06:23.542Z,6.08
2018-02-11T03:07:04.128Z,6.14
2018-02-11T03:07:44.658Z,6.3
2018-02-11T03:08:25.241Z,6.19
2018-02-11T03:09:05.778Z,6.25
2018-02-11T03:09:46.315Z,6.3
2018-02-11T03:10:26.882Z,6.19
2018-02-11T03:11:07.430Z,6.28
2018-02-11T03:11:48.044Z,6.18
2018-02-11T03:12:28.604Z,6.17
2018-02-11T03:13:09.111Z,6.14
2018-02-11T03:13:49.666Z,6.14
2018-02-11T03:14:30.240Z,6.21
2018-02-11T03:15:10.724Z,6.21
2018-02-11T03:15:51.268Z,6.25
2018-02-11T03:16:31.758Z,6.08
2018-02-11T03:17:12.280Z,5.94
2018-02-11T03:17:52.866Z,6.03
2018-02-11T03:18:33.366Z,6.22
2018-02-11T03:19:13.904Z,6.25
2018-02-11T03:19:54.464Z,6.3
2018-02-11T03:20:34.986Z,6.4
2018-02-11T03:21:15.554Z,6.31
2018-02-11T03:21:56.077Z,6.36
2018-02-11T03:22:36.624Z,6.33
2018-02-11T03:23:17.215Z,6.31
2018-02-11T03:23:57.732Z,6.31
2018-02-11T03:24:38.275Z,6.28
2018-02-11T03:25:18.829Z,6.28
2018-02-11T03:25:59.373Z,6.3
2018-02-11T03:26:39.899Z,6.3
2018-02-11T03:27:20.422Z,6.25
2018-02-11T03:28:00.955Z,6.28
2018-02-11T03:28:41.473Z,6.27
2018-02-11T03:29:22.080Z,6.08
2018-02-11T03:30:02.592Z,6.04
2018-02-11T03:30:43.107Z,6.21
2018-02-11T03:31:23.641Z,6.17
2018-02-11T03:32:04.190Z,6.09
2018-02-11T03:32:44.747Z,6.14
2018-02-11T03:33:25.288Z,6.17
2018-02-11T03:34:05.809Z,6.28
2018-02-11T03:34:46.338Z,6.25
2018-02-11T03:35:26.883Z,6.18
2018-02-11T03:36:07.398Z,6.09
2018-02-11T03:36:47.945Z,6.21
2018-02-11T03:37:28.475Z,6.27
2018-02-11T03:38:09.009Z,6.27
2018-02-11T03:38:49.531Z,6.18
2018-02-11T03:39:30.068Z,6.31
2018-02-11T03:40:10.594Z,6.21
2018-02-11T03:40:51.125Z,6.31
2018-02-11T03:41:31.670Z,6.18
2018-02-11T03:42:12.187Z,6.27
2018-02-11T03:42:52.669Z,6.33
2018-02-11T03:43:33.194Z,6.25
2018-02-11T03:44:13.707Z,6.22
2018-02-11T03:44:54.247Z,6.3
2018-02-11T03:45:34.795Z,6.37
2018-02-11T03:46:15.316Z,6.18
2018-02-11T03:46:55.842Z,6.22
2018-02-11T03:47:36.431Z,6.18
2018-02-11T03:48:16.995Z,6.11
2018-02-11T03:48:57.531Z,6.18
2018-02-11T03:49:38.080Z,6.08
2018-02-11T03:50:18.588Z,6.15
2018-02-11T03:50:59.150Z,6.12
2018-02-11T03:51:39.721Z,6.22
2018-02-11T03:52:20.251Z,6.25
2018-02-11T03:53:00.773Z,6.15
2018-02-11T03:53:41.360Z,6.15
2018-02-11T03:54:21.903Z,6.06
2018-02-11T03:55:02.381Z,5.97
2018-02-11T03:55:42.972Z,6.08
2018-02-11T03:56:23.496Z,6.06
2018-02-11T03:57:04.035Z,6.09
2018-02-11T03:57:44.602Z,5.96
2018-02-11T03:58:25.148Z,6.04
2018-02-11T03:59:05.675Z,6.08
2018-02-11T03:59:46.244Z,5.97
2018-02-11T04:00:26.778Z,5.99
2018-02-11T04:01:07.322Z,5.91
2018-02-11T04:01:47.812Z,5.79
2018-02-11T04:02:28.367Z,5.96
2018-02-11T04:03:08.885Z,5.83
2018-02-11T04:03:49.416Z,5.96
2018-02-11T04:04:29.943Z,5.89
2018-02-11T04:05:10.507Z,6
2018-02-11T04:05:51.001Z,6.08
2018-02-11T04:06:31.520Z,6.08
2018-02-11T04:07:12.073Z,6.04
2018-02-11T04:07:52.617Z,6
2018-02-11T04:08:33.187Z,5.96
2018-02-11T04:09:13.734Z,5.99
2018-02-11T04:09:54.291Z,5.94
2018-02-11T04:10:34.825Z,5.94
2018-02-11T04:11:15.326Z,6.03
2018-02-11T04:11:55.885Z,6.04
2018-02-11T04:12:36.423Z,5.96
2018-02-11T04:13:16.970Z,5.96
2018-02-11T04:13:57.524Z,5.99
2018-02-11T04:14:38.057Z,5.99
2018-02-11T04:15:18.594Z,5.94
2018-02-11T04:15:59.166Z,6.04
2018-02-11T04:16:39.680Z,6.25
2018-02-11T04:17:20.209Z,6.17
2018-02-11T04:18:00.754Z,6.19
2018-02-11T04:18:41.318Z,6.22
2018-02-11T04:19:21.881Z,6.28
2018-02-11T04:20:02.417Z,6.31
2018-02-11T04:20:42.934Z,6.28
2018-02-11T04:21:23.496Z,6.3
2018-02-11T04:22:04.041Z,6.27
2018-02-11T04:22:44.565Z,6.14
2018-02-11T04:23:25.140Z,6.12
2018-02-11T04:24:05.662Z,6.12
2018-02-11T04:24:46.222Z,6.12
2018-02-11T04:25:26.739Z,6.06
2018-02-11T04:26:07.280Z,6.08
2018-02-11T04:26:47.840Z,6.03
2018-02-11T04:27:28.426Z,6.12
2018-02-11T04:28:08.953Z,6.27
2018-02-11T04:28:49.485Z,6.22
2018-02-11T04:29:30.010Z,6.31
2018-02-11T04:30:10.549Z,6.17
2018-02-11T04:30:51.099Z,6.19
2018-02-11T04:31:31.691Z,6.27
2018-02-11T04:32:12.189Z,6.25
2018-02-11T04:32:52.743Z,6.3
2018-02-11T04:33:33.256Z,6.28
2018-02-11T04:34:13.798Z,6.19
2018-02-11T04:34:54.345Z,6.34
2018-02-11T04:35:34.909Z,6.31
2018-02-11T04:36:15.437Z,6.37
2018-02-11T04:36:55.958Z,6.33
2018-02-11T04:37:36.476Z,6.33
2018-02-11T04:38:17.009Z,6.27
2018-02-11T04:38:57.592Z,6.33
2018-02-11T04:39:38.088Z,6.28
2018-02-11T04:40:18.642Z,6.36
2018-02-11T04:40:59.142Z,6.22
2018-02-11T04:41:39.675Z,6.31
2018-02-11T04:42:20.243Z,6.22
2018-02-11T04:43:00.773Z,6.28
2018-02-11T04:43:41.324Z,6.17
2018-02-11T04:44:21.856Z,6.33
2018-02-11T04:45:02.400Z,6.25
2018-02-11T04:45:42.913Z,6.28
2018-02-11T04:46:23.490Z,6.43
2018-02-11T04:47:04.084Z,6.37
2018-02-11T04:47:44.599Z,6.43
2018-02-11T04:48:25.115Z,6.36
2018-02-11T04:49:05.682Z,6.49
2018-02-11T04:49:46.270Z,6.4
2018-02-11T04:50:26.760Z,6.41
2018-02-11T04:51:07.319Z,6.43
2018-02-11T04:51:47.866Z,6.34
2018-02-11T04:52:28.377Z,6.27
2018-02-11T04:53:08.928Z,6.31
2018-02-11T04:53:49.489Z,6.38
2018-02-11T04:54:30.056Z,6.38
2018-02-11T04:55:10.598Z,6.25
2018-02-11T04:55:51.140Z,6.18
2018-02-11T04:56:31.718Z,6.15
2018-02-11T04:57:12.250Z,6.12
2018-02-11T04:57:52.770Z,6.28
2018-02-11T04:58:33.345Z,6.21
2018-02-11T04:59:13.883Z,6.28
2018-02-11T04:59:54.452Z,6.31
2018-02-11T05:00:34.956Z,6.25
2018-02-11T05:01:15.503Z,6.33
2018-02-11T05:01:56.049Z,6.34
2018-02-11T05:02:36.599Z,6.27
2018-02-11T05:03:17.119Z,6.22
2018-02-11T05:03:57.751Z,6.25
2018-02-11T05:04:38.239Z,6.12
2018-02-11T05:05:18.797Z,6.04
2018-02-11T05:05:59.333Z,5.97
2018-02-11T05:06:39.855Z,6.17
2018-02-11T05:07:20.402Z,6.08
2018-02-11T05:08:00.953Z,6.25
2018-02-11T05:08:41.513Z,6.12
2018-02-11T05:09:22.060Z,6.18
2018-02-11T05:10:02.637Z,6.31
2018-02-11T05:10:43.123Z,6.17
2018-02-11T05:11:23.681Z,6.15
2018-02-11T05:12:04.231Z,6.25
2018-02-11T05:12:44.742Z,6.19
2018-02-11T05:13:25.300Z,6.22
2018-02-11T05:14:05.849Z,6.28
2018-02-11T05:14:46.423Z,6.28
2018-02-11T05:15:26.948Z,6.3
2018-02-11T05:16:07.457Z,6.28
2018-02-11T05:16:48.014Z,6.28
2018-02-11T05:17:28.562Z,6.36
2018-02-11T05:18:09.099Z,6.31
2018-02-11T05:18:49.643Z,6.3
2018-02-11T05:19:30.215Z,6.37
2018-02-11T05:20:10.727Z,6.37
2018-02-11T05:20:51.312Z,6.37
2018-02-11T05:21:31.858Z,6.36
2018-02-11T05:22:12.373Z,6.31
2018-02-11T05:22:52.917Z,6.37
2018-02-11T05:23:33.459Z,6.19
2018-02-11T05:24:13.998Z,6.17
2018-02-11T05:24:54.554Z,6.04
2018-02-11T05:25:35.090Z,6.12
2018-02-11T05:26:15.583Z,6.09
2018-02-11T05:26:56.139Z,6.18
2018-02-11T05:27:36.686Z,6.09
2018-02-11T05:28:17.202Z,6.15
2018-02-11T05:28:57.762Z,6.09
2018-02-11T05:29:38.272Z,6.11
2018-02-11T05:30:18.845Z,6.17
2018-02-11T05:30:59.369Z,6.15
2018-02-11T05:31:39.962Z,6.08
2018-02-11T05:32:20.475Z,6.09
2018-02-11T05:33:00.992Z,6.01
2018-02-11T05:33:41.540Z,6.14
2018-02-11T05:34:22.087Z,6.14
2018-02-11T05:35:02.684Z,6.22
2018-02-11T05:35:43.170Z,6.31
2018-02-11T05:36:23.729Z,6.33
2018-02-11T05:37:04.273Z,6.27
2018-02-11T05:37:44.802Z,6.17
2018-02-11T05:38:25.345Z,6.25
2018-02-11T05:39:05.879Z,6.27
2018-02-11T05:39:46.415Z,6.21
2018-02-11T05:40:27.857Z,6.22
2018-02-11T05:41:07.481Z,6.18
2018-02-11T05:41:48.051Z,6.18
2018-02-11T05:42:28.587Z,6.21
2018-02-11T05:43:09.115Z,6.4
2018-02-11T05:43:49.629Z,6.27
2018-02-11T05:44:30.159Z,6.25
2018-02-11T05:45:10.720Z,6.18
2018-02-11T05:45:51.259Z,6.25
2018-02-11T05:46:31.766Z,6.27
2018-02-11T05:47:12.285Z,6.12
2018-02-11T05:47:52.796Z,6.14
2018-02-11T05:48:33.320Z,6.12
2018-02-11T05:49:13.840Z,6.04
2018-02-11T05:49:54.390Z,6.04
2018-02-11T05:50:34.937Z,6.03
2018-02-11T05:51:15.451Z,6.11
2018-02-11T05:51:56.003Z,6.09
2018-02-11T05:52:36.551Z,6.08
2018-02-11T05:53:17.110Z,6.04
2018-02-11T05:53:57.627Z,6.17
2018-02-11T05:54:38.197Z,6.19
2018-02-11T05:55:18.766Z,6.11
2018-02-11T05:55:59.240Z,6.11
2018-02-11T05:56:39.780Z,6.11
2018-02-11T05:57:20.334Z,6.21
2018-02-11T05:58:00.874Z,6.25
2018-02-11T05:58:41.401Z,6.18
2018-02-11T05:59:21.941Z,6.17
2018-02-11T06:00:02.485Z,6.14
2018-02-11T06:00:43.034Z,6.09
2018-02-11T06:01:23.558Z,6.19
2018-02-11T06:02:04.106Z,6.28
2018-02-11T06:02:44.580Z,6.21
2018-02-11T06:03:25.154Z,6.25
2018-02-11T06:04:05.692Z,6.27
2018-02-11T06:04:46.217Z,6.31
2018-02-11T06:05:26.766Z,6.31
2018-02-11T06:06:07.307Z,6.28
2018-02-11T06:06:47.838Z,6.28
2018-02-11T06:07:28.379Z,6.3
2018-02-11T06:08:08.932Z,6.22
2018-02-11T06:08:49.452Z,6.34
2018-02-11T06:09:30.003Z,6.31
2018-02-11T06:10:10.531Z,6.28
2018-02-11T06:10:51.028Z,6.22
2018-02-11T06:11:31.572Z,6.28
2018-02-11T06:12:12.117Z,6.33
2018-02-11T06:12:52.668Z,6.31
2018-02-11T06:13:33.285Z,6.12
2018-02-11T06:14:13.773Z,6.17
2018-02-11T06:14:54.300Z,6.17
2018-02-11T06:15:34.856Z,6.09
2018-02-11T06:16:15.439Z,6.09
2018-02-11T06:16:55.875Z,6.08
2018-02-11T06:17:36.405Z,6.15
2018-02-11T06:18:16.958Z,6.12
2018-02-11T06:18:57.495Z,6.09
2018-02-11T06:19:38.064Z,6.22
2018-02-11T06:20:18.584Z,6.25
2018-02-11T06:20:59.096Z,6.34
2018-02-11T06:21:39.632Z,6.19
2018-02-11T06:22:20.187Z,6.19
2018-02-11T06:23:00.716Z,6.12
2018-02-11T06:23:41.254Z,6.15
2018-02-11T06:24:21.808Z,6.15
2018-02-11T06:25:02.350Z,6.18
2018-02-11T06:25:42.872Z,6.21
2018-02-11T06:26:23.422Z,6.18
2018-02-11T06:27:03.936Z,6.08
2018-02-11T06:27:44.545Z,5.96
2018-02-11T06:28:25.052Z,5.93
2018-02-11T06:29:05.576Z,6.03
2018-02-11T06:29:46.095Z,6.11
2018-02-11T06:30:26.679Z,5.99
2018-02-11T06:31:07.228Z,6.09
2018-02-11T06:31:47.778Z,6.09
2018-02-11T06:32:28.322Z,6.14
2018-02-11T06:33:08.824Z,6.08
2018-02-11T06:33:49.371Z,6.04
2018-02-11T06:34:29.882Z,5.99
2018-02-11T06:35:10.473Z,6.12
2018-02-11T06:35:51.015Z,6.04
2018-02-11T06:36:31.523Z,6.08
2018-02-11T06:37:12.065Z,6
2018-02-11T06:37:52.621Z,6
2018-02-11T06:38:33.191Z,6.11
2018-02-11T06:39:13.701Z,6.03
2018-02-11T06:39:54.239Z,6.08
2018-02-11T06:40:34.805Z,6.14
2018-02-11T06:41:15.344Z,6.17
2018-02-11T06:41:55.849Z,6.11
2018-02-11T06:42:36.391Z,6.08
2018-02-11T06:43:17.153Z,6.12
2018-02-11T06:43:57.734Z,6
2018-02-11T06:44:38.442Z,5.97
2018-02-11T06:45:18.830Z,5.97
2018-02-11T06:45:59.391Z,6.04
2018-02-11T06:46:39.940Z,6.03
2018-02-11T06:47:20.477Z,6.17
2018-02-11T06:48:00.988Z,6.17
2018-02-11T06:48:41.526Z,6.15
2018-02-11T06:49:22.071Z,6.28
2018-02-11T06:50:02.605Z,6.06
2018-02-11T06:50:43.140Z,6.22
2018-02-11T06:51:23.632Z,6.21
2018-02-11T06:52:04.197Z,6.17
2018-02-11T06:52:44.694Z,6.17
2018-02-11T06:53:25.221Z,6.31
2018-02-11T06:54:05.749Z,6.22
2018-02-11T06:54:46.278Z,6.31
2018-02-11T06:55:26.806Z,6.3
2018-02-11T06:56:07.365Z,6.34
2018-02-11T06:56:47.918Z,6.34
2018-02-11T06:57:28.484Z,6.4
2018-02-11T06:58:09.035Z,6.4
2018-02-11T06:58:49.591Z,6.51
2018-02-11T06:59:30.097Z,6.36
2018-02-11T07:00:10.701Z,6.46
2018-02-11T07:00:51.154Z,6.34
2018-02-11T07:01:31.697Z,6.28
2018-02-11T07:02:12.280Z,6.28
2018-02-11T07:02:52.847Z,6.31
2018-02-11T07:03:33.382Z,6.33
2018-02-11T07:04:13.933Z,6.3
2018-02-11T07:04:54.455Z,6.4
2018-02-11T07:05:34.976Z,6.44
2018-02-11T07:06:15.516Z,6.56
2018-02-11T07:06:56.036Z,6.44
2018-02-11T07:07:36.590Z,6.43
2018-02-11T07:08:17.123Z,6.56
2018-02-11T07:08:57.660Z,6.44
2018-02-11T07:09:38.170Z,6.4
2018-02-11T07:10:18.711Z,6.3
2018-02-11T07:10:59.238Z,6.43
2018-02-11T07:11:39.784Z,6.4
2018-02-11T07:12:20.355Z,6.33
2018-02-11T07:13:00.997Z,6.37
2018-02-11T07:13:41.486Z,6.46
2018-02-11T07:14:21.940Z,6.43
2018-02-11T07:15:02.486Z,6.48
2018-02-11T07:15:43.014Z,6.4
2018-02-11T07:16:23.567Z,6.44
2018-02-11T07:17:04.082Z,6.49
2018-02-11T07:17:44.655Z,6.56
2018-02-11T07:18:25.194Z,6.48
2018-02-11T07:19:05.720Z,6.52
2018-02-11T07:19:46.373Z,6.58
2018-02-11T07:20:26.905Z,6.48
2018-02-11T07:21:07.445Z,6.43
2018-02-11T07:21:47.978Z,6.41
2018-02-11T07:22:28.537Z,6.37
2018-02-11T07:23:09.099Z,6.41
2018-02-11T07:23:49.627Z,6.33
2018-02-11T07:24:30.180Z,6.34
2018-02-11T07:25:10.722Z,6.44
2018-02-11T07:25:51.251Z,6.37
2018-02-11T07:26:31.742Z,6.33
2018-02-11T07:27:12.305Z,6.34
2018-02-11T07:27:52.840Z,6.37
2018-02-11T07:28:33.441Z,6.34
2018-02-11T07:29:13.980Z,6.3
2018-02-11T07:29:54.485Z,6.27
2018-02-11T07:30:35.012Z,6.33
2018-02-11T07:31:15.574Z,6.33
2018-02-11T07:31:56.166Z,6.36
2018-02-11T07:32:36.665Z,6.27
2018-02-11T07:33:17.217Z,6.27
2018-02-11T07:33:57.765Z,6.25
2018-02-11T07:34:38.302Z,6.33
2018-02-11T07:35:18.876Z,6.31
2018-02-11T07:35:59.470Z,6.36
2018-02-11T07:36:39.957Z,6.21
2018-02-11T07:37:20.518Z,6.43
2018-02-11T07:38:01.036Z,6.25
2018-02-11T07:38:41.574Z,6.44
2018-02-11T07:39:22.136Z,6.33
2018-02-11T07:40:02.674Z,6.43
2018-02-11T07:40:43.225Z,6.3
2018-02-11T07:41:23.812Z,6.22
2018-02-11T07:42:04.328Z,6.28
2018-02-11T07:42:44.842Z,6.27
2018-02-11T07:43:25.358Z,6.25
2018-02-11T07:44:05.889Z,6.31
2018-02-11T07:44:46.479Z,6.31
2018-02-11T07:45:26.965Z,6.27
2018-02-11T07:46:07.515Z,6.31
2018-02-11T07:46:48.103Z,6.37
2018-02-11T07:47:28.636Z,6.46
2018-02-11T07:48:09.169Z,6.33
2018-02-11T07:48:49.699Z,6.19
2018-02-11T07:49:30.287Z,6.31
2018-02-11T07:50:10.791Z,6.34
2018-02-11T07:50:51.337Z,6.34
2018-02-11T07:51:31.921Z,6.37
2018-02-11T07:52:12.440Z,6.28
2018-02-11T07:52:52.997Z,6.25
2018-02-11T07:53:33.529Z,6.3
2018-02-11T07:54:14.154Z,6.41
2018-02-11T07:55:01.680Z,6.48
2018-02-11T07:55:42.371Z,6.55
2018-02-11T07:56:22.786Z,6.59
2018-02-11T07:57:03.341Z,6.64
2018-02-11T07:57:43.870Z,6.62
2018-02-11T07:58:24.436Z,6.52
2018-02-11T07:59:05.007Z,6.51
2018-02-11T07:59:45.525Z,6.66
2018-02-11T08:00:26.086Z,6.61
2018-02-11T08:01:06.633Z,6.64
2018-02-11T08:01:47.175Z,6.61
2018-02-11T08:02:27.733Z,6.69
2018-02-11T08:03:08.340Z,6.52
2018-02-11T08:03:48.860Z,6.59
2018-02-11T08:04:29.517Z,6.67
2018-02-11T08:05:10.086Z,6.51
2018-02-11T08:05:50.604Z,6.49
2018-02-11T08:06:31.158Z,6.49
2018-02-11T08:07:11.710Z,6.58
2018-02-11T08:07:52.363Z,6.59
2018-02-11T08:08:32.915Z,6.49
2018-02-11T08:09:13.456Z,6.55
2018-02-11T08:09:53.988Z,6.64
2018-02-11T08:10:34.583Z,6.46
2018-02-11T08:11:15.107Z,6.27
2018-02-11T08:11:55.656Z,6.36
2018-02-11T08:12:36.259Z,6.28
2018-02-11T08:13:16.744Z,6.43
2018-02-11T08:13:57.344Z,6.37
2018-02-11T08:14:37.862Z,6.36
2018-02-11T08:15:18.359Z,6.3
2018-02-11T08:15:58.888Z,6.38
2018-02-11T08:16:39.440Z,6.34
2018-02-11T08:17:19.995Z,6.28
2018-02-11T08:18:00.551Z,6.21
2018-02-11T08:18:41.100Z,6.25
2018-02-11T08:19:21.695Z,6.18
2018-02-11T08:20:02.218Z,6.22
2018-02-11T08:20:42.805Z,6.18
2018-02-11T08:21:23.314Z,6.25
2018-02-11T08:22:03.846Z,6.33
2018-02-11T08:22:44.422Z,6.44
2018-02-11T08:23:24.954Z,6.28
2018-02-11T08:24:05.460Z,6.43
2018-02-11T08:24:46.001Z,6.41
2018-02-11T08:25:26.625Z,6.34
2018-02-11T08:26:07.148Z,6.33
2018-02-11T08:26:47.710Z,6.46
2018-02-11T08:27:28.216Z,6.48
2018-02-11T08:28:08.745Z,6.4
2018-02-11T08:28:49.291Z,6.36
2018-02-11T08:29:29.831Z,6.34
2018-02-11T08:30:10.366Z,6.34
2018-02-11T08:30:50.943Z,6.28
2018-02-11T08:31:31.487Z,6.18
2018-02-11T08:32:12.036Z,6.3
2018-02-11T08:32:52.564Z,6.17
2018-02-11T08:33:33.132Z,6.18
2018-02-11T08:34:13.631Z,6.19
2018-02-11T08:34:54.179Z,6.17
2018-02-11T08:35:34.668Z,6.12
2018-02-11T08:36:15.211Z,6.33
2018-02-11T08:36:55.793Z,6.25
2018-02-11T08:37:36.341Z,6.18
2018-02-11T08:38:16.905Z,6.22
2018-02-11T08:38:57.532Z,6.3
2018-02-11T08:39:37.991Z,6.34
2018-02-11T08:40:18.515Z,6.19
2018-02-11T08:40:59.097Z,6.25
2018-02-11T08:41:39.579Z,6.27
2018-02-11T08:42:21.011Z,6.27
2018-02-11T08:43:01.562Z,6.21
2018-02-11T08:43:42.055Z,6.12
2018-02-11T08:44:22.614Z,6.19
2018-02-11T08:45:03.163Z,6.14
2018-02-11T08:45:43.675Z,6.15
2018-02-11T08:46:24.223Z,6.21
2018-02-11T08:47:04.805Z,6.38
2018-02-11T08:47:45.318Z,6.36
2018-02-11T08:48:25.907Z,6.31
2018-02-11T08:49:06.438Z,6.49
2018-02-11T08:49:46.979Z,6.46
2018-02-11T08:50:27.488Z,6.48
2018-02-11T08:51:08.074Z,6.49
2018-02-11T08:51:48.609Z,6.31
2018-02-11T08:52:29.135Z,6.4
2018-02-11T08:53:09.657Z,6.31
2018-02-11T08:53:50.224Z,6.33
2018-02-11T08:54:30.788Z,6.3
2018-02-11T08:55:11.285Z,6.3
2018-02-11T08:55:51.867Z,6.33
2018-02-11T08:56:32.370Z,6.37
2018-02-11T08:57:12.878Z,6.51
2018-02-11T08:57:53.451Z,6.41
2018-02-11T08:58:33.955Z,6.36
2018-02-11T08:59:14.512Z,6.34
2018-02-11T08:59:55.017Z,6.51
2018-02-11T09:00:35.574Z,6.4
2018-02-11T09:01:16.117Z,6.46
2018-02-11T09:01:56.679Z,6.59